Time;durP1;ratioP1;P1;durP2;ratioP2;P2;SDS_P1;SDS_P2;PMS_P1;PMS_P2;Temp;Humidity;BMP_temperature;BMP_pressure;BME280_temperature;BME280_humidity;BME280_pressure;Samples;Min_cycle;Max_cycle;Signal;HPM_P1;HPM_P2
2022/08/05 00:02:07;;;;;;;6.68;2.78;;;22.50;99.90;;;;;;5050673;28;20239;-78
2022/08/05 00:04:33;;;;;;;5.50;2.83;;;22.40;99.90;;;;;;5050565;28;20084;-78
2022/08/05 00:06:59;;;;;;;6.07;2.80;;;22.40;99.90;;;;;;5050073;28;20392;-78
2022/08/05 00:09:25;;;;;;;6.90;2.90;;;22.40;99.90;;;;;;5050266;28;20483;-78
2022/08/05 00:11:50;;;;;;;7.22;3.15;;;22.30;99.90;;;;;;5050436;28;20469;-78
2022/08/05 00:14:16;;;;;;;6.38;3.13;;;22.30;99.90;;;;;;5050422;28;20124;-78
2022/08/05 00:16:43;;;;;;;6.90;3.20;;;22.30;99.90;;;;;;5050152;28;20028;-78
2022/08/05 00:19:09;;;;;;;5.80;2.83;;;22.30;99.90;;;;;;5050233;28;20120;-78
2022/08/05 00:21:34;;;;;;;6.70;3.40;;;22.30;99.90;;;;;;5050251;28;20099;-78
2022/08/05 00:24:00;;;;;;;5.60;3.20;;;22.20;99.90;;;;;;5052718;28;20432;-78
2022/08/05 00:26:26;;;;;;;6.50;3.80;;;22.20;99.90;;;;;;5054241;28;20037;-77
2022/08/05 00:28:51;;;;;;;7.00;3.35;;;22.20;99.90;;;;;;5054123;28;20029;-78
2022/08/05 00:31:18;;;;;;;7.95;3.47;;;22.20;99.90;;;;;;5054112;28;20021;-78
2022/08/05 00:33:43;;;;;;;7.60;4.03;;;22.20;99.90;;;;;;5036479;28;20103;-78
2022/08/05 00:36:09;;;;;;;8.00;3.60;;;22.20;99.90;;;;;;5053578;28;20132;-78
2022/08/05 00:38:35;;;;;;;9.85;5.10;;;22.10;99.90;;;;;;5053839;28;20020;-78
2022/08/05 00:41:01;;;;;;;9.05;4.32;;;22.10;99.90;;;;;;5054147;28;20367;-77
2022/08/05 00:43:27;;;;;;;6.15;3.55;;;22.10;99.90;;;;;;5054012;28;20032;-78
2022/08/05 00:45:54;;;;;;;8.30;3.80;;;22.10;99.90;;;;;;5053826;28;20083;-78
2022/08/05 00:48:21;;;;;;;7.80;4.25;;;22.10;99.90;;;;;;5053837;28;20131;-78
2022/08/05 00:50:50;;;;;;;10.48;4.40;;;22.10;99.90;;;;;;5053523;28;20028;-78
2022/08/05 00:53:22;;;;;;;6.65;4.00;;;22.10;99.90;;;;;;5053910;28;20057;-77
2022/08/05 00:55:48;;;;;;;11.55;4.40;;;22.10;99.90;;;;;;5053500;28;20036;-78
2022/08/05 00:58:18;;;;;;;6.75;3.85;;;22.10;99.90;;;;;;5035863;28;20496;-77
2022/08/05 01:00:45;;;;;;;7.07;3.80;;;22.00;99.90;;;;;;5053539;28;20028;-77
2022/08/05 01:03:11;;;;;;;5.18;3.53;;;22.00;99.90;;;;;;5053669;28;20025;-78
2022/08/05 01:05:37;;;;;;;6.78;3.50;;;21.90;99.90;;;;;;5053557;28;20040;-78
2022/08/05 01:08:03;;;;;;;6.65;3.65;;;21.90;99.90;;;;;;5053570;28;20116;-78
2022/08/05 01:11:20;;;;;;;6.60;3.60;;;21.90;99.90;;;;;;5035412;28;20029;-78
2022/08/05 01:14:24;;;;;;;8.33;3.50;;;21.90;99.90;;;;;;5019178;28;20037;-78
2022/08/05 01:17:03;;;;;;;7.03;3.20;;;22.00;99.90;;;;;;5053487;28;20114;-78
2022/08/05 01:19:40;;;;;;;5.82;3.65;;;21.90;99.90;;;;;;5053181;28;20040;-78
2022/08/05 01:22:24;;;;;;;5.30;3.38;;;21.80;99.90;;;;;;5053098;28;20393;-78
2022/08/05 01:25:41;;;;;;;7.53;3.75;;;21.80;99.90;;;;;;5053398;28;20515;-77
2022/08/05 01:28:17;;;;;;;7.68;3.55;;;21.70;99.90;;;;;;5008361;28;20041;-77
2022/08/05 01:31:08;;;;;;;6.35;3.90;;;21.60;99.90;;;;;;5052912;28;20037;-78
2022/08/05 01:33:42;;;;;;;6.07;3.63;;;21.60;99.90;;;;;;5041532;28;20060;-78
2022/08/05 01:36:12;;;;;;;6.57;3.78;;;21.60;99.90;;;;;;5051578;28;20039;-78
2022/08/05 01:38:38;;;;;;;7.70;4.30;;;21.50;99.90;;;;;;5052785;28;20393;-78
2022/08/05 01:41:06;;;;;;;15.35;9.02;;;21.50;99.90;;;;;;5052938;28;20477;-78
2022/08/05 01:43:33;;;;;;;8.90;5.97;;;21.50;99.90;;;;;;5052936;28;20083;-77
2022/08/05 01:46:00;;;;;;;9.02;4.95;;;21.40;99.90;;;;;;5052935;28;20264;-78
2022/08/05 01:48:28;;;;;;;8.18;4.70;;;21.50;99.90;;;;;;5052776;28;20423;-77
2022/08/05 01:50:55;;;;;;;6.55;4.70;;;21.50;99.90;;;;;;5052563;28;20389;-78
2022/08/05 01:53:22;;;;;;;7.57;4.70;;;21.50;99.90;;;;;;5052640;28;20061;-78
2022/08/05 01:55:49;;;;;;;8.95;4.60;;;21.50;99.90;;;;;;5052318;28;20029;-77
2022/08/05 01:58:16;;;;;;;8.25;3.78;;;21.40;99.90;;;;;;5052615;28;20116;-78
2022/08/05 02:00:49;;;;;;;6.95;4.00;;;21.40;99.90;;;;;;5052537;28;20033;-78
2022/08/05 02:03:35;;;;;;;7.18;4.50;;;21.40;99.90;;;;;;5052589;28;20025;-78
2022/08/05 02:06:04;;;;;;;7.88;4.05;;;21.30;99.90;;;;;;5052268;28;20089;-78
2022/08/05 02:08:31;;;;;;;7.07;4.25;;;21.30;99.90;;;;;;5034282;28;20025;-78
2022/08/05 02:11:11;;;;;;;6.63;4.20;;;21.30;99.90;;;;;;5052510;28;20133;-78
2022/08/05 02:13:43;;;;;;;7.80;4.07;;;21.30;99.90;;;;;;5052349;28;20028;-78
2022/08/05 02:16:22;;;;;;;6.47;4.18;;;21.40;99.90;;;;;;5051817;28;20032;-77
2022/08/05 02:18:55;;;;;;;7.25;4.32;;;21.30;99.90;;;;;;5052066;28;20017;-78
2022/08/05 02:21:27;;;;;;;8.40;4.18;;;21.40;99.90;;;;;;5052210;28;20390;-78
2022/08/05 02:23:58;;;;;;;7.63;4.00;;;21.40;99.90;;;;;;5052524;28;20047;-78
2022/08/05 02:26:36;;;;;;;10.25;4.97;;;21.50;99.90;;;;;;5051804;28;20497;-78
2022/08/05 02:29:04;;;;;;;6.13;3.88;;;21.40;99.90;;;;;;5051896;28;20385;-78
2022/08/05 02:31:32;;;;;;;7.03;4.07;;;21.40;99.90;;;;;;5051959;28;20090;-78
2022/08/05 02:34:02;;;;;;;7.88;4.10;;;21.40;99.90;;;;;;5052055;28;20036;-78
2022/08/05 02:36:30;;;;;;;8.90;4.38;;;21.40;99.90;;;;;;5051847;28;20033;-78
2022/08/05 02:38:56;;;;;;;8.57;3.97;;;21.40;99.90;;;;;;5051737;28;20124;-78
2022/08/05 02:41:25;;;;;;;8.50;3.97;;;21.30;99.90;;;;;;5051767;28;20316;-78
2022/08/05 02:43:51;;;;;;;10.23;4.60;;;21.40;99.90;;;;;;5051744;28;20029;-78
2022/08/05 02:46:19;;;;;;;6.60;4.13;;;21.40;99.90;;;;;;5051421;28;20069;-77
2022/08/05 02:48:45;;;;;;;7.47;4.55;;;21.30;99.90;;;;;;5051440;28;20035;-78
2022/08/05 02:51:13;;;;;;;6.90;4.20;;;21.30;99.90;;;;;;5051648;28;20080;-78
2022/08/05 02:53:40;;;;;;;9.13;4.50;;;21.20;99.90;;;;;;5051460;28;20033;-78
2022/08/05 02:56:09;;;;;;;8.00;4.30;;;21.20;99.90;;;;;;5051180;28;20058;-78
2022/08/05 02:58:38;;;;;;;9.75;4.63;;;21.20;99.90;;;;;;5051365;28;20029;-78
2022/08/05 03:01:05;;;;;;;9.95;4.65;;;21.30;99.90;;;;;;5051433;28;20033;-77
2022/08/05 03:03:31;;;;;;;8.95;4.93;;;21.30;99.90;;;;;;5051344;28;20079;-78
2022/08/05 03:05:58;;;;;;;9.20;4.65;;;21.20;99.90;;;;;;5051045;28;20037;-77
2022/08/05 03:08:24;;;;;;;7.32;4.53;;;21.20;99.90;;;;;;5051216;28;20477;-78
2022/08/05 03:10:50;;;;;;;7.18;5.07;;;21.20;99.90;;;;;;5050972;28;20048;-77
2022/08/05 03:13:16;;;;;;;8.30;4.63;;;21.20;99.90;;;;;;5051162;28;20021;-78
2022/08/05 03:15:44;;;;;;;6.57;4.80;;;21.30;99.90;;;;;;5050944;28;20116;-78
2022/08/05 03:18:10;;;;;;;8.80;4.30;;;21.20;99.90;;;;;;5051217;28;20492;-78
2022/08/05 03:20:36;;;;;;;7.50;4.78;;;21.20;99.90;;;;;;5051288;28;20108;-78
2022/08/05 03:23:05;;;;;;;8.43;5.05;;;21.20;99.90;;;;;;5051292;28;20025;-78
2022/08/05 03:25:31;;;;;;;7.43;4.30;;;21.20;99.90;;;;;;5050904;28;20024;-78
2022/08/05 03:27:57;;;;;;;7.78;4.28;;;21.10;99.90;;;;;;5051050;28;20112;-77
2022/08/05 03:30:25;;;;;;;10.57;5.45;;;21.10;99.90;;;;;;5050768;28;20033;-78
2022/08/05 03:32:52;;;;;;;10.80;4.80;;;21.10;99.90;;;;;;5050913;28;20082;-78
2022/08/05 03:35:19;;;;;;;5.65;3.63;;;21.20;99.90;;;;;;5050961;28;20029;-78
2022/08/05 03:37:45;;;;;;;10.25;4.47;;;21.10;99.90;;;;;;5050679;28;20116;-78
2022/08/05 03:40:11;;;;;;;7.82;4.28;;;21.10;99.90;;;;;;5050729;28;20442;-78
2022/08/05 03:42:39;;;;;;;10.45;4.20;;;21.00;99.90;;;;;;5050908;28;20043;-77
2022/08/05 03:45:06;;;;;;;9.63;5.07;;;21.00;99.90;;;;;;5050831;28;20036;-78
2022/08/05 03:47:32;;;;;;;9.82;4.70;;;21.00;99.90;;;;;;5050501;28;20029;-78
2022/08/05 03:49:58;;;;;;;8.55;4.80;;;21.00;99.90;;;;;;5050360;28;20044;-78
2022/08/05 03:52:34;;;;;;;7.25;4.93;;;20.90;99.90;;;;;;5050669;28;20041;-77
2022/08/05 03:55:05;;;;;;;9.57;4.85;;;20.90;99.90;;;;;;5050490;28;20028;-78
2022/08/05 03:57:32;;;;;;;10.55;5.55;;;20.90;99.90;;;;;;5049976;28;20516;-78
2022/08/05 04:00:13;;;;;;;10.90;6.03;;;20.90;99.90;;;;;;5050421;28;20029;-78
2022/08/05 04:02:42;;;;;;;13.18;7.65;;;20.90;99.90;;;;;;5050853;28;20465;-78
2022/08/05 04:05:09;;;;;;;10.73;7.10;;;20.90;99.90;;;;;;5050765;28;20037;-78
2022/08/05 04:07:37;;;;;;;12.52;8.02;;;20.90;99.90;;;;;;5050485;28;20464;-78
2022/08/05 04:10:04;;;;;;;8.80;6.05;;;20.90;99.90;;;;;;5050260;28;20420;-77
2022/08/05 04:12:30;;;;;;;10.02;5.35;;;20.90;99.90;;;;;;5050436;28;20052;-77
2022/08/05 04:14:56;;;;;;;10.95;5.55;;;21.00;99.90;;;;;;5050129;28;20112;-77
2022/08/05 04:17:22;;;;;;;8.27;5.65;;;21.00;99.90;;;;;;5050177;28;20029;-77
2022/08/05 04:19:48;;;;;;;11.05;5.70;;;21.00;99.90;;;;;;5050261;28;20067;-77
2022/08/05 04:22:14;;;;;;;10.60;6.32;;;21.00;99.90;;;;;;5050430;28;20060;-77
2022/08/05 04:24:41;;;;;;;9.32;5.88;;;21.00;99.90;;;;;;5050488;28;20633;-77
2022/08/05 04:27:07;;;;;;;8.55;5.38;;;21.00;99.90;;;;;;5050089;28;20370;-77
2022/08/05 04:29:33;;;;;;;10.70;6.53;;;21.10;99.90;;;;;;5050003;28;20040;-77
2022/08/05 04:31:58;;;;;;;13.15;8.32;;;21.10;99.90;;;;;;5050232;28;20485;-77
2022/08/05 04:34:24;;;;;;;11.40;7.30;;;21.10;99.90;;;;;;5050182;28;20025;-77
2022/08/05 04:36:50;;;;;;;13.43;8.27;;;21.10;99.90;;;;;;5049963;28;20432;-77
2022/08/05 04:39:17;;;;;;;13.10;8.38;;;21.10;99.90;;;;;;5049991;28;20043;-77
2022/08/05 04:41:42;;;;;;;12.63;7.40;;;21.10;99.90;;;;;;5050206;28;20496;-77
2022/08/05 04:44:08;;;;;;;13.57;7.78;;;21.10;99.90;;;;;;5050047;28;20108;-77
2022/08/05 04:46:34;;;;;;;11.05;7.85;;;21.00;99.90;;;;;;5049787;28;20036;-77
2022/08/05 04:49:00;;;;;;;16.35;9.25;;;21.00;99.90;;;;;;5049942;28;20104;-77
2022/08/05 04:51:25;;;;;;;16.05;10.75;;;21.00;99.90;;;;;;5050133;28;20077;-77
2022/08/05 04:53:51;;;;;;;13.07;9.10;;;21.00;99.90;;;;;;5050048;28;20500;-77
2022/08/05 04:56:17;;;;;;;13.77;8.05;;;20.90;99.90;;;;;;5049818;28;20033;-77
2022/08/05 04:58:43;;;;;;;13.32;9.07;;;20.90;99.90;;;;;;5049807;28;20044;-77
2022/08/05 05:01:09;;;;;;;12.73;8.32;;;20.90;99.90;;;;;;5050141;28;20029;-77
2022/08/05 05:03:34;;;;;;;16.48;9.15;;;21.00;99.90;;;;;;5050099;28;20103;-77
2022/08/05 05:06:00;;;;;;;13.65;8.15;;;21.00;99.90;;;;;;5049808;28;20409;-77
2022/08/05 05:08:26;;;;;;;12.07;8.15;;;20.90;99.90;;;;;;5049879;28;20473;-77
2022/08/05 05:10:52;;;;;;;12.68;8.75;;;20.80;99.90;;;;;;5051704;28;20033;-77
2022/08/05 05:13:17;;;;;;;12.80;8.63;;;20.90;99.90;;;;;;5053379;28;20037;-77
2022/08/05 05:15:44;;;;;;;10.52;8.40;;;20.90;99.90;;;;;;5053058;28;20029;-77
2022/08/05 05:18:17;;;;;;;13.68;8.63;;;20.80;99.90;;;;;;5053615;28;20108;-77
2022/08/05 05:20:43;;;;;;;12.50;8.90;;;20.80;99.90;;;;;;5053335;28;20029;-77
2022/08/05 05:23:10;;;;;;;10.00;6.95;;;20.80;99.90;;;;;;5053360;28;20053;-77
2022/08/05 05:25:35;;;;;;;12.23;8.60;;;20.70;99.90;;;;;;5053227;28;20033;-77
2022/08/05 05:28:01;;;;;;;11.52;7.88;;;20.70;99.90;;;;;;5053096;28;20037;-77
2022/08/05 05:30:27;;;;;;;14.90;9.70;;;20.70;99.90;;;;;;5052805;28;20036;-77
2022/08/05 05:32:53;;;;;;;13.85;9.70;;;20.70;99.90;;;;;;5053433;28;20035;-77
2022/08/05 05:35:21;;;;;;;15.50;9.98;;;20.70;99.90;;;;;;5052810;28;20116;-77
2022/08/05 05:37:55;;;;;;;15.43;10.10;;;20.70;99.90;;;;;;5053259;28;20036;-77
2022/08/05 05:40:22;;;;;;;12.10;8.65;;;20.70;99.90;;;;;;5052645;28;20044;-77
2022/08/05 05:42:49;;;;;;;17.83;9.80;;;20.70;99.90;;;;;;5053293;28;20281;-77
2022/08/05 05:45:15;;;;;;;12.57;9.23;;;20.60;99.90;;;;;;5053008;28;20055;-77
2022/08/05 05:47:41;;;;;;;10.93;7.22;;;20.60;99.90;;;;;;5052615;28;20057;-77
2022/08/05 05:50:09;;;;;;;10.80;8.32;;;20.60;99.90;;;;;;5052588;28;20107;-77
2022/08/05 05:52:35;;;;;;;11.77;7.85;;;20.60;99.90;;;;;;5052747;28;20025;-77
2022/08/05 05:55:07;;;;;;;11.05;7.38;;;20.60;99.90;;;;;;5052421;28;20494;-77
2022/08/05 05:57:34;;;;;;;15.00;8.90;;;20.60;99.90;;;;;;5052412;28;20032;-77
2022/08/05 06:00:00;;;;;;;13.60;8.02;;;20.50;99.90;;;;;;5052389;28;20021;-77
2022/08/05 06:02:26;;;;;;;12.68;7.75;;;20.50;99.90;;;;;;5053078;28;20043;-77
2022/08/05 06:04:52;;;;;;;12.75;8.60;;;20.50;99.90;;;;;;5052366;28;20527;-77
2022/08/05 06:07:18;;;;;;;12.68;8.80;;;20.50;99.90;;;;;;5034274;28;20029;-77
2022/08/05 06:09:43;;;;;;;12.77;9.07;;;20.40;99.90;;;;;;5052370;28;20141;-77
2022/08/05 06:12:09;;;;;;;12.20;9.30;;;20.40;99.90;;;;;;5052380;28;20029;-77
2022/08/05 06:14:35;;;;;;;15.32;9.13;;;20.40;99.90;;;;;;5052170;28;20143;-77
2022/08/05 06:17:01;;;;;;;16.20;9.32;;;20.30;99.90;;;;;;5052016;28;20060;-77
2022/08/05 06:19:27;;;;;;;15.90;8.25;;;20.20;99.90;;;;;;5052090;28;20133;-77
2022/08/05 06:21:52;;;;;;;11.07;8.20;;;20.20;99.90;;;;;;5052150;28;20029;-77
2022/08/05 06:24:18;;;;;;;13.70;7.03;;;20.10;99.90;;;;;;5052180;28;20051;-77
2022/08/05 06:26:44;;;;;;;13.00;8.02;;;20.10;99.90;;;;;;5051809;28;20482;-77
2022/08/05 06:29:10;;;;;;;13.43;7.03;;;20.10;99.90;;;;;;5051795;28;20025;-77
2022/08/05 06:31:36;;;;;;;11.10;6.95;;;20.10;99.90;;;;;;5052037;28;20017;-77
2022/08/05 06:34:03;;;;;;;9.18;6.47;;;20.10;99.90;;;;;;5052040;28;20032;-77
2022/08/05 06:36:29;;;;;;;12.63;6.65;;;20.10;99.90;;;;;;5076135;22;20128;-71
2022/08/05 06:38:55;;;;;;;14.23;7.70;;;20.00;99.90;;;;;;5071981;28;20108;-71
2022/08/05 06:41:21;;;;;;;11.65;7.20;;;20.00;99.90;;;;;;5054070;28;20471;-70
2022/08/05 06:43:47;;;;;;;9.48;5.25;;;20.00;99.90;;;;;;5071912;28;20024;-71
2022/08/05 06:46:14;;;;;;;9.88;5.28;;;20.00;99.90;;;;;;5071742;28;20059;-71
2022/08/05 06:48:40;;;;;;;10.55;5.40;;;20.00;99.90;;;;;;5071917;28;20031;-71
2022/08/05 06:51:06;;;;;;;13.15;5.32;;;20.00;99.90;;;;;;5071725;28;20032;-71
2022/08/05 06:53:32;;;;;;;11.77;5.03;;;20.00;99.90;;;;;;5071917;28;20036;-71
2022/08/05 06:55:59;;;;;;;8.40;4.90;;;19.90;99.90;;;;;;5071487;28;20143;-71
2022/08/05 06:58:26;;;;;;;10.35;5.90;;;20.00;99.90;;;;;;5071831;28;20020;-71
2022/08/05 07:00:52;;;;;;;7.53;4.45;;;20.00;99.90;;;;;;5071339;28;20525;-71
2022/08/05 07:03:18;;;;;;;9.40;5.22;;;20.00;99.90;;;;;;5071593;28;20024;-71
2022/08/05 07:05:44;;;;;;;10.02;4.80;;;20.00;99.90;;;;;;5053636;28;20074;-71
2022/08/05 07:08:10;;;;;;;9.85;5.35;;;20.10;99.90;;;;;;5071414;28;20055;-71
2022/08/05 07:10:37;;;;;;;8.77;5.35;;;20.10;99.90;;;;;;5071279;28;20028;-71
2022/08/05 07:18:32;;;;;;;11.45;6.18;;;20.10;99.90;;;;;;5071341;28;20028;-71
2022/08/05 07:20:58;;;;;;;9.80;4.80;;;20.10;99.90;;;;;;5071397;28;20020;-71
2022/08/05 07:23:23;;;;;;;7.72;4.68;;;20.10;99.90;;;;;;5071510;28;20054;-70
2022/08/05 07:25:49;;;;;;;8.45;4.57;;;20.10;99.90;;;;;;5053591;28;20889;-71
2022/08/05 07:28:15;;;;;;;11.25;4.40;;;20.10;99.90;;;;;;5071132;28;20024;-70
2022/08/05 07:30:41;;;;;;;10.80;4.53;;;20.10;99.90;;;;;;5071381;28;20036;-70
2022/08/05 07:33:09;;;;;;;8.27;4.00;;;20.10;99.90;;;;;;5070404;28;20024;-70
2022/08/05 07:35:36;;;;;;;10.85;4.50;;;20.00;99.90;;;;;;5071019;28;20032;-71
2022/08/05 07:38:02;;;;;;;7.13;3.70;;;20.00;99.90;;;;;;5071099;28;20020;-69
2022/08/05 07:40:28;;;;;;;10.68;3.90;;;20.00;99.90;;;;;;5070865;28;20021;-70
2022/08/05 07:42:54;;;;;;;8.73;3.45;;;19.90;99.90;;;;;;5071310;28;20061;-70
2022/08/05 07:45:20;;;;;;;8.85;4.18;;;19.90;99.90;;;;;;5071229;28;20033;-70
2022/08/05 07:47:46;;;;;;;8.07;3.72;;;19.90;99.90;;;;;;5070806;28;20034;-69
2022/08/05 07:50:12;;;;;;;7.65;4.20;;;19.90;99.90;;;;;;5052906;28;20032;-70
2022/08/05 07:52:40;;;;;;;10.35;4.80;;;19.90;99.90;;;;;;5071027;28;20028;-70
2022/08/05 07:55:06;;;;;;;7.53;3.47;;;19.90;99.90;;;;;;5071067;28;20106;-71
2022/08/05 07:57:32;;;;;;;9.88;4.03;;;19.80;99.90;;;;;;5071104;28;20032;-71
2022/08/05 07:59:58;;;;;;;7.50;3.22;;;19.80;99.90;;;;;;5071009;28;20060;-69
2022/08/05 08:02:26;;;;;;;6.95;3.22;;;19.70;99.90;;;;;;5071425;28;20059;-71
2022/08/05 08:04:52;;;;;;;8.40;3.63;;;19.70;99.90;;;;;;5070970;28;20142;-70
2022/08/05 08:07:19;;;;;;;8.10;3.53;;;19.70;99.90;;;;;;5070945;28;20040;-69
2022/08/05 08:09:45;;;;;;;10.25;3.65;;;19.60;99.90;;;;;;5052531;28;20025;-70
2022/08/05 08:12:15;;;;;;;8.07;3.50;;;19.60;99.90;;;;;;5071088;28;20043;-71
2022/08/05 08:14:41;;;;;;;10.43;3.90;;;19.60;99.90;;;;;;5070727;28;20118;-70
2022/08/05 08:17:10;;;;;;;9.52;3.65;;;19.60;99.90;;;;;;5070631;28;20027;-70
2022/08/05 08:19:36;;;;;;;;;;;19.60;99.90;;;;;;5070803;28;20029;-70
2022/08/05 08:22:03;;;;;;;6.50;3.00;;;19.70;99.90;;;;;;5070797;28;20331;-71
2022/08/05 08:24:30;;;;;;;5.45;2.97;;;19.70;99.90;;;;;;5070828;28;20060;-71
2022/08/05 08:26:56;;;;;;;6.32;3.00;;;19.80;99.90;;;;;;5070728;28;20101;-70
2022/08/05 08:29:22;;;;;;;7.95;3.22;;;19.80;99.90;;;;;;5070701;28;20199;-70
2022/08/05 08:31:49;;;;;;;7.88;2.90;;;19.80;99.90;;;;;;5070961;28;20345;-70
2022/08/05 08:34:20;;;;;;;7.90;3.00;;;19.80;99.90;;;;;;5070580;28;20020;-70
2022/08/05 08:36:46;;;;;;;7.65;2.72;;;19.80;99.90;;;;;;5070440;28;20094;-69
2022/08/05 08:39:13;;;;;;;6.10;2.72;;;19.90;99.90;;;;;;5070728;28;20029;-70
2022/08/05 08:41:40;;;;;;;6.20;2.92;;;19.90;99.90;;;;;;5070414;28;20025;-70
2022/08/05 08:44:12;;;;;;;9.60;3.40;;;19.80;99.90;;;;;;5053662;28;20544;-70
2022/08/05 08:46:39;;;;;;;6.80;2.95;;;19.80;99.90;;;;;;5074265;28;20029;-70
2022/08/05 08:49:06;;;;;;;11.55;3.33;;;19.80;99.90;;;;;;5074029;28;20032;-70
2022/08/05 08:51:34;;;;;;;5.60;2.60;;;19.70;99.90;;;;;;5074104;28;20034;-69
2022/08/05 08:54:00;;;;;;;6.68;2.70;;;19.80;99.90;;;;;;5074120;28;20068;-70
2022/08/05 08:56:26;;;;;;;7.78;3.08;;;19.80;99.90;;;;;;5074065;28;20109;-70
2022/08/05 08:58:53;;;;;;;8.45;3.72;;;19.90;99.90;;;;;;5074382;28;20025;-70
2022/08/05 09:01:19;;;;;;;9.13;4.00;;;19.90;99.90;;;;;;5074024;28;20036;-69
2022/08/05 09:03:48;;;;;;;7.53;3.30;;;19.90;99.90;;;;;;5073887;28;20028;-70
2022/08/05 09:06:14;;;;;;;8.68;3.40;;;20.00;99.90;;;;;;5074132;28;20109;-70
2022/08/05 09:08:40;;;;;;;9.85;3.42;;;20.00;99.90;;;;;;5073753;28;20039;-70
2022/08/05 09:11:07;;;;;;;7.93;3.28;;;20.00;99.90;;;;;;5074063;28;20020;-70
2022/08/05 09:13:35;;;;;;;6.90;2.78;;;20.00;99.90;;;;;;5074303;28;20020;-70
2022/08/05 09:16:01;;;;;;;8.57;3.13;;;20.00;99.90;;;;;;5055714;28;20405;-70
2022/08/05 09:18:28;;;;;;;8.75;3.65;;;20.00;99.90;;;;;;5073792;28;20035;-70
2022/08/05 09:20:54;;;;;;;10.50;3.38;;;20.00;99.90;;;;;;5073583;28;20039;-70
2022/08/05 09:23:20;;;;;;;7.85;3.40;;;20.00;99.90;;;;;;5074049;28;20103;-70
2022/08/05 09:25:49;;;;;;;8.75;3.60;;;20.00;99.90;;;;;;5055749;28;20094;-70
2022/08/05 09:28:18;;;;;;;6.88;3.60;;;20.00;99.90;;;;;;5073494;28;20396;-70
2022/08/05 09:30:55;;;;;;;8.30;3.47;;;20.00;99.90;;;;;;5073529;28;20078;-70
2022/08/05 09:33:22;;;;;;;9.52;3.45;;;20.00;99.90;;;;;;5055884;28;20040;-71
2022/08/05 09:36:04;;;;;;;6.60;2.67;;;20.00;99.90;;;;;;5073344;28;20029;-70
2022/08/05 09:38:31;;;;;;;8.25;3.72;;;20.00;99.90;;;;;;5073300;28;20427;-71
2022/08/05 09:41:06;;;;;;;8.20;3.50;;;20.00;99.90;;;;;;5073344;28;20586;-71
2022/08/05 09:43:34;;;;;;;8.25;2.92;;;20.10;99.90;;;;;;5073200;28;20115;-71
2022/08/05 09:46:02;;;;;;;9.00;3.35;;;20.10;99.90;;;;;;5073085;28;20024;-71
2022/08/05 09:48:32;;;;;;;9.52;3.15;;;20.10;99.90;;;;;;5055278;28;20029;-68
2022/08/05 09:51:30;;;;;;;8.60;2.60;;;20.20;99.90;;;;;;5073232;28;20032;-71
2022/08/05 09:53:56;;;;;;;8.38;3.20;;;20.20;99.90;;;;;;5073121;28;20036;-71
2022/08/05 09:56:27;;;;;;;7.70;3.22;;;20.30;99.90;;;;;;5072077;28;20085;-71
2022/08/05 09:58:57;;;;;;;5.30;2.55;;;20.40;99.90;;;;;;5073045;28;20477;-70
2022/08/05 10:01:23;;;;;;;6.35;3.40;;;20.40;99.90;;;;;;5073023;28;20295;-72
2022/08/05 10:04:04;;;;;;;8.82;3.38;;;20.50;99.90;;;;;;5055433;28;20028;-70
2022/08/05 10:06:31;;;;;;;8.20;2.83;;;20.60;99.90;;;;;;5072801;28;20059;-71
2022/08/05 10:09:15;;;;;;;6.63;2.50;;;20.60;99.90;;;;;;5072591;28;20028;-69
2022/08/05 10:11:43;;;;;;;5.40;2.58;;;20.70;99.90;;;;;;5054911;28;20036;-71
2022/08/05 10:14:22;;;;;;;8.43;2.80;;;20.70;99.90;;;;;;5072984;28;20559;-71
2022/08/05 10:16:49;;;;;;;6.65;2.60;;;20.70;99.90;;;;;;5072243;28;20032;-71
2022/08/05 10:19:15;;;;;;;5.22;2.33;;;20.80;99.90;;;;;;5072458;28;20395;-71
2022/08/05 10:21:41;;;;;;;6.13;2.45;;;20.80;99.90;;;;;;5072931;28;20078;-71
2022/08/05 10:24:11;;;;;;;7.47;2.67;;;20.90;99.90;;;;;;5054987;28;20031;-71
2022/08/05 10:26:40;;;;;;;6.82;2.83;;;21.10;99.90;;;;;;5054554;28;20326;-70
2022/08/05 10:29:07;;;;;;;4.75;2.50;;;21.10;99.90;;;;;;5054171;28;20498;-70
2022/08/05 10:31:35;;;;;;;5.00;2.20;;;21.20;99.90;;;;;;5072206;28;20554;-70
2022/08/05 10:34:01;;;;;;;5.75;1.90;;;21.20;99.90;;;;;;5072298;28;20033;-70
2022/08/05 10:36:28;;;;;;;6.88;2.58;;;21.30;99.90;;;;;;5071998;28;20024;-70
2022/08/05 10:39:23;;;;;;;6.13;3.65;;;21.40;99.90;;;;;;5072431;28;20272;-70
2022/08/05 10:42:07;;;;;;;4.88;2.40;;;21.50;99.50;;;;;;5071417;28;20040;-70
2022/08/05 10:44:34;;;;;;;4.75;2.17;;;21.50;99.50;;;;;;5072249;28;20037;-70
2022/08/05 10:47:10;;;;;;;8.32;2.58;;;21.50;98.40;;;;;;5054280;28;20029;-69
2022/08/05 10:50:02;;;;;;;5.00;1.73;;;21.60;98.70;;;;;;5072039;28;20032;-70
2022/08/05 10:52:43;;;;;;;4.35;2.10;;;21.70;97.70;;;;;;5071870;28;20481;-70
2022/08/05 10:55:12;;;;;;;4.70;2.03;;;21.70;97.30;;;;;;5072226;28;20028;-70
2022/08/05 10:57:43;;;;;;;5.93;1.90;;;21.70;97.60;;;;;;5071875;28;20025;-69
2022/08/05 11:00:15;;;;;;;5.47;2.17;;;21.70;97.60;;;;;;5071508;28;20129;-70
2022/08/05 11:03:02;;;;;;;5.65;2.35;;;21.80;97.60;;;;;;5071620;28;20112;-68
2022/08/05 11:05:29;;;;;;;6.72;2.03;;;21.80;97.60;;;;;;5071676;28;20043;-69
2022/08/05 11:08:01;;;;;;;6.78;2.25;;;21.90;97.70;;;;;;5071395;28;20046;-70
2022/08/05 11:10:27;;;;;;;6.22;2.92;;;21.90;97.50;;;;;;5071378;28;20099;-69
2022/08/05 11:12:54;;;;;;;4.90;2.47;;;21.90;96.70;;;;;;5071570;28;20024;-69
2022/08/05 11:15:39;;;;;;;3.85;2.13;;;21.90;97.10;;;;;;5071296;28;20056;-71
2022/08/05 11:18:27;;;;;;;4.35;2.00;;;21.90;97.20;;;;;;5071520;28;20113;-70
2022/08/05 11:20:54;;;;;;;6.00;2.33;;;21.90;97.40;;;;;;5071342;28;20033;-71
2022/08/05 11:23:35;;;;;;;6.78;2.50;;;22.00;96.90;;;;;;5071802;28;20051;-70
2022/08/05 11:26:20;;;;;;;3.72;2.15;;;22.00;96.90;;;;;;5070795;28;20497;-70
2022/08/05 11:28:52;;;;;;;4.93;2.00;;;22.00;97.10;;;;;;5070956;28;20107;-71
2022/08/05 11:31:31;;;;;;;5.03;2.10;;;22.10;96.90;;;;;;5071123;28;20028;-71
2022/08/05 11:34:00;;;;;;;5.10;2.42;;;22.20;96.70;;;;;;5071347;28;20028;-71
2022/08/05 11:36:46;;;;;;;6.82;3.20;;;22.20;96.50;;;;;;5070755;28;20081;-71
2022/08/05 11:39:17;;;;;;;5.82;2.65;;;22.30;95.90;;;;;;5071967;28;20135;-70
2022/08/05 11:41:51;;;;;;;11.23;3.03;;;22.20;96.10;;;;;;5071195;28;20025;-70
2022/08/05 11:44:19;;;;;;;4.45;2.10;;;22.20;96.30;;;;;;5071207;28;20048;-71
2022/08/05 11:46:49;;;;;;;;;;;22.10;97.10;;;;;;5071845;28;20028;-70
2022/08/05 11:49:18;;;;;;;5.43;2.72;;;22.20;96.70;;;;;;5071134;28;19923;-70
2022/08/05 11:51:48;;;;;;;6.93;2.70;;;22.20;96.30;;;;;;5071193;28;20036;-70
2022/08/05 11:54:29;;;;;;;4.70;2.75;;;22.10;96.10;;;;;;5071168;28;20489;-70
2022/08/05 11:56:56;;;;;;;3.83;2.25;;;22.10;96.00;;;;;;5072980;28;20090;-70
2022/08/05 11:59:25;;;;;;;5.18;2.60;;;22.20;96.40;;;;;;5072012;28;20040;-71
2022/08/05 12:01:58;;;;;;;5.57;2.40;;;22.20;96.40;;;;;;5071000;28;20020;-71
2022/08/05 12:04:26;;;;;;;7.03;2.90;;;22.20;96.10;;;;;;5070971;28;20508;-70
2022/08/05 12:06:53;;;;;;;4.55;2.75;;;22.20;95.70;;;;;;5070881;28;20569;-71
2022/08/05 12:09:27;;;;;;;6.13;2.90;;;22.20;95.20;;;;;;5070689;28;20101;-69
2022/08/05 12:11:55;;;;;;;4.13;3.00;;;22.30;95.00;;;;;;5071083;28;20055;-70
2022/08/05 12:14:22;;;;;;;7.57;4.15;;;22.30;95.30;;;;;;5071074;28;20032;-71
2022/08/05 12:16:48;;;;;;;7.00;3.60;;;22.30;95.00;;;;;;5070832;28;20058;-71
2022/08/05 12:19:15;;;;;;;5.47;3.30;;;22.30;95.40;;;;;;5053798;28;20020;-69
2022/08/05 12:21:43;;;;;;;7.85;3.50;;;22.40;95.70;;;;;;5074805;28;20056;-70
2022/08/05 12:24:13;;;;;;;7.88;4.18;;;22.40;95.40;;;;;;5074753;28;20497;-71
2022/08/05 12:26:42;;;;;;;8.57;3.80;;;22.50;94.60;;;;;;5074616;28;20044;-71
2022/08/05 12:29:13;;;;;;;;;;;22.50;94.50;;;;;;5057022;28;20086;-71
2022/08/05 12:31:43;;;;;;;8.18;4.35;;;22.50;94.50;;;;;;5056773;28;19908;-70
2022/08/05 12:34:09;;;;;;;7.63;2.80;;;22.50;94.60;;;;;;5074549;28;20036;-71
2022/08/05 12:36:36;;;;;;;6.63;2.95;;;22.40;94.50;;;;;;5097964;22;20420;-77
2022/08/05 12:39:05;;;;;;;6.45;3.15;;;22.30;94.60;;;;;;5055733;28;20028;-77
2022/08/05 12:41:33;;;;;;;6.78;3.03;;;22.20;94.50;;;;;;5074020;28;20032;-77
2022/08/05 12:44:05;;;;;;;8.32;3.78;;;22.10;94.60;;;;;;5074166;28;20040;-77
2022/08/05 12:46:32;;;;;;;8.52;4.20;;;22.10;95.10;;;;;;5073715;28;20047;-77
2022/08/05 12:49:14;;;;;;;9.50;3.70;;;22.10;94.90;;;;;;5074076;28;20103;-77
2022/08/05 12:51:51;;;;;;;6.88;3.22;;;22.10;95.10;;;;;;5056037;28;20039;-77
2022/08/05 12:54:28;;;;;;;11.07;3.55;;;22.20;94.50;;;;;;5074055;28;20332;-77
2022/08/05 12:56:58;;;;;;;7.25;3.03;;;22.20;94.70;;;;;;5073434;28;20035;-77
2022/08/05 12:59:25;;;;;;;9.73;3.72;;;22.10;95.10;;;;;;5073875;28;20044;-77
2022/08/05 13:02:02;;;;;;;6.10;2.58;;;22.10;95.00;;;;;;5073728;28;20059;-77